createdAt,value
2023-03-05T00:01:02.065Z,0.10
2023-03-05T00:04:31.158Z,0.10
2023-03-05T00:08:00.739Z,0.20
2023-03-05T00:11:30.516Z,0.10
2023-03-05T00:14:59.289Z,0.10
2023-03-05T00:18:28.000Z,0.10
2023-03-05T00:22:02.924Z,0.10
2023-03-05T00:25:32.617Z,0.10
2023-03-05T00:29:01.311Z,0.20
2023-03-05T00:32:30.399Z,0.20
2023-03-05T00:35:59.671Z,0.20
2023-03-05T00:39:28.850Z,0.20
2023-03-05T00:42:52.357Z,0.10
2023-03-05T00:46:21.451Z,0.20
2023-03-05T00:49:50.151Z,0.20
2023-03-05T00:53:19.250Z,0.30
2023-03-05T00:56:48.504Z,0.20
2023-03-05T01:00:10.898Z,0.20
2023-03-05T01:03:40.280Z,0.10
2023-03-05T01:07:10.088Z,0.10
2023-03-05T01:10:39.252Z,0.20
2023-03-05T01:14:08.549Z,0.10
2023-03-05T01:17:37.748Z,0.10
2023-03-05T01:21:06.694Z,0.20
2023-03-05T01:24:35.691Z,0.10
2023-03-05T01:28:05.352Z,0.10
2023-03-05T01:31:37.357Z,0.10
2023-03-05T01:35:06.606Z,0.10
2023-03-05T01:38:35.487Z,0.10
2023-03-05T01:42:04.655Z,0.10
2023-03-05T01:45:43.160Z,0.10
2023-03-05T01:49:11.928Z,0.10
2023-03-05T01:52:47.183Z,0.10
2023-03-05T01:56:17.138Z,0.10
2023-03-05T01:59:48.999Z,0.10
2023-03-05T02:03:18.631Z,0.10
2023-03-05T02:06:47.935Z,0.00
2023-03-05T02:10:17.104Z,0.10
2023-03-05T02:13:40.564Z,0.10
2023-03-05T02:17:10.023Z,0.00
2023-03-05T02:20:47.921Z,0.10
2023-03-05T02:24:16.968Z,0.10
2023-03-05T02:27:36.205Z,0.10
2023-03-05T02:31:05.600Z,0.10
2023-03-05T02:34:34.768Z,0.10
2023-03-05T02:37:57.375Z,0.00
2023-03-05T02:41:26.985Z,0.10
2023-03-05T02:44:56.473Z,0.10
2023-03-05T02:48:25.482Z,0.10
2023-03-05T02:51:47.636Z,0.10
2023-03-05T02:55:16.753Z,0.10
2023-03-05T02:58:45.633Z,0.00
2023-03-05T03:02:14.386Z,0.10
2023-03-05T03:05:43.365Z,0.10
2023-03-05T03:09:12.785Z,0.10
2023-03-05T03:12:42.221Z,0.10
2023-03-05T03:16:11.478Z,0.10
2023-03-05T03:19:41.728Z,0.10
2023-03-05T03:23:10.694Z,0.10
2023-03-05T03:26:40.318Z,0.10
2023-03-05T03:30:09.585Z,0.10
2023-03-05T03:33:39.079Z,0.10
2023-03-05T03:37:08.411Z,0.10
2023-03-05T03:40:37.822Z,0.10
2023-03-05T03:44:06.981Z,0.00
2023-03-05T03:47:36.284Z,0.00
2023-03-05T03:51:05.438Z,0.00
2023-03-05T03:54:34.637Z,0.00
2023-03-05T03:58:03.713Z,0.00
2023-03-05T04:01:25.709Z,0.00
2023-03-05T04:04:55.307Z,0.00
2023-03-05T04:08:24.402Z,0.00
2023-03-05T04:11:53.058Z,0.00
2023-03-05T04:15:22.197Z,0.00
2023-03-05T04:18:50.856Z,0.00
2023-03-05T04:22:20.065Z,0.00
2023-03-05T04:25:49.230Z,0.00
2023-03-05T04:29:17.942Z,0.00
2023-03-05T04:32:49.494Z,0.00
2023-03-05T04:36:18.659Z,0.00
2023-03-05T04:39:48.158Z,0.00
2023-03-05T04:43:17.570Z,0.00
2023-03-05T04:46:27.557Z,0.00
2023-03-05T04:49:56.981Z,0.00
2023-03-05T04:53:26.449Z,0.00
2023-03-05T04:56:48.418Z,0.00
2023-03-05T05:00:11.219Z,0.00
2023-03-05T05:03:40.413Z,0.00
2023-03-05T05:07:09.220Z,0.00
2023-03-05T05:11:17.641Z,0.00
2023-03-05T05:14:28.758Z,0.00
2023-03-05T05:18:02.437Z,0.10
2023-03-05T05:21:31.897Z,0.10
2023-03-05T05:25:01.263Z,0.10
2023-03-05T05:28:30.424Z,0.10
2023-03-05T05:31:59.627Z,0.00
2023-03-05T05:35:28.852Z,0.10
2023-03-05T05:38:58.502Z,0.10
2023-03-05T05:42:27.644Z,0.00
2023-03-05T05:45:56.769Z,0.10
2023-03-05T05:49:26.524Z,0.10
2023-03-05T05:52:55.718Z,0.00
2023-03-05T05:56:26.482Z,0.10
2023-03-05T05:59:56.445Z,0.10
2023-03-05T06:03:25.874Z,0.10
2023-03-05T06:07:25.513Z,0.10
2023-03-05T06:10:44.148Z,0.10
2023-03-05T06:14:05.473Z,0.10
2023-03-05T06:17:34.902Z,0.20
2023-03-05T06:21:04.354Z,0.20
2023-03-05T06:24:24.081Z,0.10
2023-03-05T06:27:53.201Z,0.30
2023-03-05T06:31:22.222Z,0.20
2023-03-05T06:34:51.099Z,0.30
2023-03-05T06:38:20.476Z,0.40
2023-03-05T06:41:49.922Z,0.20
2023-03-05T06:45:22.030Z,0.10
2023-03-05T06:48:52.902Z,0.20
2023-03-05T06:52:22.632Z,0.10
2023-03-05T06:55:51.861Z,0.10
2023-03-05T06:59:20.836Z,0.10
2023-03-05T07:02:50.192Z,0.20
2023-03-05T07:06:22.475Z,0.10
2023-03-05T07:09:51.522Z,0.10
2023-03-05T07:13:05.768Z,0.10
2023-03-05T07:16:35.251Z,0.20
2023-03-05T07:20:05.479Z,0.20
2023-03-05T07:23:34.932Z,0.20
2023-03-05T07:27:07.426Z,0.20
2023-03-05T07:30:36.624Z,0.20
2023-03-05T07:34:06.038Z,0.20
2023-03-05T07:37:35.557Z,0.20
2023-03-05T07:41:04.749Z,0.30
2023-03-05T07:44:33.839Z,0.20
2023-03-05T07:47:55.103Z,0.30
2023-03-05T07:51:24.208Z,0.20
2023-03-05T07:54:46.636Z,0.20
2023-03-05T07:58:15.730Z,0.20
2023-03-05T08:01:44.958Z,0.30
2023-03-05T08:05:14.722Z,0.40
2023-03-05T08:08:52.649Z,0.40
2023-03-05T08:12:21.714Z,0.30
2023-03-05T08:15:51.482Z,0.30
2023-03-05T08:19:20.694Z,0.30
2023-03-05T08:22:49.742Z,0.30
2023-03-05T08:26:18.977Z,0.40
2023-03-05T08:29:47.605Z,0.40
2023-03-05T08:33:16.669Z,0.40
2023-03-05T08:36:45.796Z,0.50
2023-03-05T08:40:14.991Z,0.50
2023-03-05T08:43:44.026Z,0.70
2023-03-05T08:47:13.335Z,0.40
2023-03-05T08:50:42.749Z,0.50
2023-03-05T08:54:11.860Z,0.60
2023-03-05T08:57:33.886Z,0.40
2023-03-05T09:01:03.233Z,0.50
2023-03-05T09:04:22.265Z,0.40
2023-03-05T09:07:51.529Z,0.50
2023-03-05T09:11:20.659Z,0.50
2023-03-05T09:14:50.067Z,0.40
2023-03-05T09:18:19.243Z,0.30
2023-03-05T09:21:48.584Z,0.40
2023-03-05T09:25:17.834Z,0.40
2023-03-05T09:28:46.875Z,0.40
2023-03-05T09:32:16.408Z,0.30
2023-03-05T09:35:45.944Z,0.30
2023-03-05T09:39:15.665Z,0.30
2023-03-05T09:42:57.458Z,0.40
2023-03-05T09:46:41.779Z,0.40
2023-03-05T09:50:12.458Z,0.40
2023-03-05T09:53:57.077Z,0.40
2023-03-05T09:57:25.865Z,0.40
2023-03-05T10:00:54.142Z,0.40
2023-03-05T10:04:47.604Z,0.40
2023-03-05T10:08:16.316Z,0.40
2023-03-05T10:11:47.549Z,0.30
2023-03-05T10:15:16.994Z,0.30
2023-03-05T10:19:00.531Z,0.30
2023-03-05T10:22:34.997Z,0.20
2023-03-05T10:26:08.125Z,0.30
2023-03-05T10:29:36.848Z,0.20
2023-03-05T10:33:06.135Z,0.20
2023-03-05T10:36:46.018Z,0.10
2023-03-05T10:40:27.279Z,0.20
2023-03-05T10:44:09.030Z,0.20
2023-03-05T10:47:37.821Z,0.20
2023-03-05T10:50:59.874Z,0.10
2023-03-05T10:54:38.031Z,0.10
2023-03-05T10:58:12.958Z,0.20
2023-03-05T11:01:44.412Z,0.20
2023-03-05T11:05:28.730Z,0.30
2023-03-05T11:09:06.246Z,0.40
2023-03-05T11:12:43.836Z,0.40
2023-03-05T11:16:13.035Z,0.30
2023-03-05T11:19:41.240Z,0.40
2023-03-05T11:23:10.161Z,0.30
2023-03-05T11:26:39.732Z,0.40
2023-03-05T11:30:08.776Z,0.30
2023-03-05T11:33:52.713Z,0.30
2023-03-05T11:37:34.208Z,0.20
2023-03-05T11:41:14.857Z,0.20
2023-03-05T11:44:43.869Z,0.20
2023-03-05T11:48:25.166Z,0.30
2023-03-05T11:51:56.998Z,0.40
2023-03-05T11:55:32.356Z,0.30
2023-03-05T11:59:12.317Z,0.30
2023-03-05T12:02:44.424Z,0.40
2023-03-05T12:06:13.208Z,0.40
2023-03-05T12:09:42.455Z,0.30
2023-03-05T12:13:11.548Z,0.30
2023-03-05T12:16:49.313Z,0.30
2023-03-05T12:20:26.624Z,0.20
2023-03-05T12:23:55.652Z,0.20
2023-03-05T12:27:35.481Z,0.40
2023-03-05T12:31:16.328Z,0.20
2023-03-05T12:34:51.298Z,0.20
2023-03-05T12:38:27.022Z,0.30
2023-03-05T12:42:04.917Z,0.20
2023-03-05T12:45:51.534Z,0.20
2023-03-05T12:49:23.582Z,0.20
2023-03-05T12:52:52.267Z,0.20
2023-03-05T12:56:33.967Z,0.10
2023-03-05T13:00:03.037Z,0.10
2023-03-05T13:03:35.047Z,0.10
2023-03-05T13:07:06.983Z,0.10
2023-03-05T13:10:38.566Z,0.20
2023-03-05T13:14:07.824Z,0.10
2023-03-05T13:17:39.949Z,0.10
2023-03-05T13:21:07.224Z,0.20
2023-03-05T13:24:39.196Z,0.20
2023-03-05T13:28:11.738Z,0.20
2023-03-05T13:31:41.387Z,0.20
2023-03-05T13:35:54.837Z,0.10
2023-03-05T13:39:06.135Z,0.10
2023-03-05T13:42:37.691Z,0.10
2023-03-05T13:46:07.056Z,0.10
2023-03-05T13:49:35.873Z,0.10
2023-03-05T13:53:07.521Z,0.20
2023-03-05T13:56:36.865Z,0.30
2023-03-05T14:00:06.276Z,0.20
2023-03-05T14:03:35.027Z,0.80
2023-03-05T14:07:02.384Z,0.60
2023-03-05T14:10:33.906Z,0.50
2023-03-05T14:14:02.530Z,0.30
2023-03-05T14:17:31.356Z,0.30
2023-03-05T14:21:12.006Z,0.60
2023-03-05T14:24:47.019Z,0.40
2023-03-05T14:28:18.646Z,0.50
2023-03-05T14:31:53.526Z,0.50
2023-03-05T14:35:22.989Z,0.60
2023-03-05T14:38:36.218Z,0.40
2023-03-05T14:42:20.787Z,0.40
2023-03-05T14:45:53.111Z,0.40
2023-03-05T14:49:22.431Z,0.50
2023-03-05T14:52:51.181Z,0.60
2023-03-05T14:56:19.218Z,0.60
2023-03-05T14:59:48.413Z,0.60
2023-03-05T15:03:20.796Z,0.40
2023-03-05T15:06:50.438Z,0.40
2023-03-05T15:10:10.435Z,0.30
2023-03-05T15:13:38.514Z,0.30
2023-03-05T15:17:07.802Z,0.40
2023-03-05T15:20:36.973Z,0.30
2023-03-05T15:24:06.232Z,0.20
2023-03-05T15:27:33.663Z,0.20
2023-03-05T15:31:02.925Z,0.20
2023-03-05T15:34:32.190Z,0.20
2023-03-05T15:38:01.367Z,0.20
2023-03-05T15:41:30.242Z,0.40
2023-03-05T15:44:59.054Z,0.30
2023-03-05T15:48:28.394Z,0.40
2023-03-05T15:51:57.776Z,0.30
2023-03-05T15:55:26.544Z,0.40
2023-03-05T15:58:48.152Z,0.70
2023-03-05T16:02:15.383Z,0.40
2023-03-05T16:05:44.315Z,0.50
2023-03-05T16:09:13.387Z,0.50
2023-03-05T16:12:42.742Z,0.40
2023-03-05T16:16:42.340Z,0.40
2023-03-05T16:20:01.370Z,0.40
2023-03-05T16:23:30.292Z,0.60
2023-03-05T16:26:59.124Z,0.40
2023-03-05T16:30:28.506Z,0.40
2023-03-05T16:34:00.266Z,0.60
2023-03-05T16:37:29.454Z,0.30
2023-03-05T16:41:07.691Z,0.30
2023-03-05T16:44:37.085Z,0.20
2023-03-05T16:48:06.213Z,0.50
2023-03-05T16:51:35.197Z,0.20
2023-03-05T16:55:04.082Z,0.20
2023-03-05T16:58:32.378Z,0.10
2023-03-05T17:02:01.141Z,0.20
2023-03-05T17:05:30.236Z,0.10
2023-03-05T17:08:59.554Z,0.10
2023-03-05T17:12:28.687Z,0.30
2023-03-05T17:15:57.867Z,0.20
2023-03-05T17:19:26.804Z,0.20
2023-03-05T17:22:56.383Z,0.20
2023-03-05T17:26:25.450Z,0.30
2023-03-05T17:29:54.285Z,0.20
2023-03-05T17:33:24.004Z,0.10
2023-03-05T17:36:56.691Z,0.20
2023-03-05T17:40:25.625Z,0.20
2023-03-05T17:43:47.376Z,0.10
2023-03-05T17:47:16.040Z,0.10
2023-03-05T17:50:45.307Z,0.10
2023-03-05T17:54:14.278Z,0.10
2023-03-05T17:57:43.365Z,0.10
2023-03-05T18:01:15.677Z,0.10
2023-03-05T18:04:45.254Z,0.00
2023-03-05T18:08:14.472Z,0.00
2023-03-05T18:11:44.278Z,0.00
2023-03-05T18:15:13.213Z,0.00
2023-03-05T18:18:42.490Z,0.00
2023-03-05T18:22:12.097Z,0.00
2023-03-05T18:25:41.704Z,0.00
2023-03-05T18:29:13.972Z,0.10
2023-03-05T18:32:43.220Z,0.00
2023-03-05T18:36:12.886Z,0.00
2023-03-05T18:39:41.646Z,0.00
2023-03-05T18:43:10.772Z,0.10
2023-03-05T18:46:40.163Z,0.00
2023-03-05T18:50:09.585Z,0.00
2023-03-05T18:53:38.401Z,0.00
2023-03-05T18:57:07.468Z,0.00
2023-03-05T19:00:36.389Z,0.00
2023-03-05T19:04:05.066Z,0.00
2023-03-05T19:07:33.936Z,0.00
2023-03-05T19:11:03.386Z,0.00
2023-03-05T19:14:35.523Z,0.00
2023-03-05T19:18:03.341Z,0.00
2023-03-05T19:21:35.316Z,0.00
2023-03-05T19:25:04.586Z,0.00
2023-03-05T19:28:33.692Z,0.00
2023-03-05T19:32:03.245Z,0.00
2023-03-05T19:35:32.359Z,0.00
2023-03-05T19:38:54.412Z,0.00
2023-03-05T19:42:23.648Z,0.10
2023-03-05T19:45:52.589Z,0.00
2023-03-05T19:49:21.674Z,0.00
2023-03-05T19:52:54.508Z,0.00
2023-03-05T19:56:23.664Z,0.00
2023-03-05T19:59:52.587Z,0.00
2023-03-05T20:03:42.720Z,0.00
2023-03-05T20:06:52.319Z,0.00
2023-03-05T20:10:23.411Z,0.00
2023-03-05T20:13:54.863Z,0.00
2023-03-05T20:17:20.097Z,0.00
2023-03-05T20:20:48.972Z,0.00
2023-03-05T20:24:18.280Z,0.00
2023-03-05T20:27:46.977Z,0.00
2023-03-05T20:30:49.186Z,0.00
2023-03-05T20:34:17.869Z,0.00
2023-03-05T20:37:46.869Z,0.00
2023-03-05T20:41:16.123Z,0.00
2023-03-05T20:44:45.112Z,0.00
2023-03-05T20:48:15.826Z,0.00
2023-03-05T20:51:53.943Z,0.00
2023-03-05T20:55:23.468Z,0.00
2023-03-05T20:58:54.821Z,0.00
2023-03-05T21:02:23.906Z,0.00
2023-03-05T21:05:53.201Z,0.00
2023-03-05T21:09:22.192Z,0.00
2023-03-05T21:12:50.914Z,0.00
2023-03-05T21:16:20.082Z,0.00
2023-03-05T21:19:42.025Z,0.00
2023-03-05T21:23:10.839Z,0.00
2023-03-05T21:26:42.805Z,0.00
2023-03-05T21:30:11.612Z,0.00
2023-03-05T21:33:40.356Z,0.00
2023-03-05T21:37:09.027Z,0.00
2023-03-05T21:40:37.745Z,0.00
2023-03-05T21:44:06.573Z,0.00
2023-03-05T21:47:35.619Z,0.00
2023-03-05T21:51:04.410Z,0.00
2023-03-05T21:54:33.270Z,0.00
2023-03-05T21:58:01.883Z,0.00
2023-03-05T22:01:31.208Z,0.00
2023-03-05T22:05:00.388Z,0.00
2023-03-05T22:08:29.666Z,0.00
2023-03-05T22:11:58.934Z,0.00
2023-03-05T22:15:28.136Z,0.00
2023-03-05T22:18:57.168Z,0.00
2023-03-05T22:22:26.210Z,0.00
2023-03-05T22:25:55.807Z,0.00
2023-03-05T22:29:25.400Z,0.00
2023-03-05T22:32:54.101Z,0.00
2023-03-05T22:36:22.882Z,0.00
2023-03-05T22:39:54.662Z,0.00
2023-03-05T22:43:24.304Z,0.00
2023-03-05T22:46:59.607Z,0.00
2023-03-05T22:50:28.527Z,0.00
2023-03-05T22:53:58.326Z,0.00
2023-03-05T22:57:27.583Z,0.00
2023-03-05T23:00:41.855Z,0.00
2023-03-05T23:04:14.163Z,0.00
2023-03-05T23:07:43.595Z,0.00
2023-03-05T23:11:13.469Z,0.00
2023-03-05T23:14:42.666Z,0.00
2023-03-05T23:18:12.134Z,0.00
2023-03-05T23:21:40.900Z,0.00
2023-03-05T23:25:09.968Z,0.00
2023-03-05T23:28:39.169Z,0.00
2023-03-05T23:32:07.973Z,0.00
2023-03-05T23:35:37.483Z,0.00
2023-03-05T23:39:07.697Z,0.00
2023-03-05T23:42:37.009Z,0.00
2023-03-05T23:46:06.130Z,0.00
2023-03-05T23:49:35.352Z,0.00
2023-03-05T23:53:04.509Z,0.00
2023-03-05T23:56:32.766Z,0.00
2023-03-05T23:59:55.343Z,0.00
